AirNav   Air Wisconsin pilot careers
 
 1646 users online  

1C9 Frazier Lake Airpark
Hollister, California, USA

GOING TO HOLLISTER?


FAA INFORMATION EFFECTIVE 01 FEBRUARY 2018

Location

FAA Identifier: 1C9
Lat/Long: 36-57-10.2000N / 121-27-45.5000W
36-57.170000N / 121-27.758333W
36.9528333 / -121.4626389
(estimated)
Elevation: 152 ft. / 46.3 m (surveyed)
Variation: 15E (1985)
From city: 8 miles NW of HOLLISTER, CA
Time zone: UTC -8 (UTC -7 during Daylight Saving Time)
Zip code: 95023

Airport Operations

Airport use: Open to the public
Activation date: 07/1983
Control tower: no
ARTCC: OAKLAND CENTER
FSS: OAKLAND FLIGHT SERVICE STATION
NOTAMs facility: OAK (NOTAM-D service available)
Attendance: UNATNDD
Wind indicator: lighted
Segmented circle: yes
Lights: ACTVT REIL RWY 23; LIRL RWY 05/23 - CTAF. RWY 23 REIL OPR CONSLY DUR DLGT HRS.

Airport Communications

CTAF/UNICOM: 123.05
WX AWOS-3 at CVH (4 nm SE): 120.425 (831-636-4394)
WX AWOS-3P at E16 (10 nm NW): 118.350 (408-918-7724)
WX ASOS at WVI (16 nm W): 132.275 (831-724-8794)
WX ASOS at SNS (19 nm S): PHONE 831-422-2830

Nearby radio navigation aids

VOR radial/distance  VOR name  Freq  Var
SNSr004/18.6SALINAS VORTAC117.3017E
SJCr122/34.2SAN JOSE VOR/DME114.1016E
PXNr277/35.8PANOCHE VORTAC112.6016E

 
NDB name  Hdg/Dist  Freq  Var  ID
CHUALAR345/27.726316EUAD ..- .- -..

Airport Services

Parking: tiedowns

Runway Information

Runway 5/23

Dimensions: 2500 x 100 ft. / 762 x 30 m
Surface: turf, in poor condition
BUMPY SFC DUE TO THE ABSENCE OF GRASS IN VARIOUS LOCATIONS.
Weight bearing capacity: 
Single wheel: GROSS WGT LTD TO 6700 LBS.
Runway edge lights: low intensity
Runway edge markings: 05/23 BOUNDRY MARKERS EACH RY END.
RUNWAY 5  RUNWAY 23
Latitude: 36-57.100292N36-57.272605N
Longitude: 121-28.008112W121-27.541698W
Elevation: 152.0 ft.153.0 ft.
Traffic pattern: leftright
Runway heading: 050 magnetic, 065 true230 magnetic, 245 true
Runway end identifier lights: yes
Obstructions: 40 ft. pline, 1350 ft. from runway, 33:1 slope to clearnone

Runway 5W/23W

Dimensions: 3000 x 60 ft. / 914 x 18 m
Surface: water, in good condition
TYPICAL WATER DEPTH 2.5 FT. WATER DEPTH NOTED AS SHALLOW AS 1 1/2 FEET DEEP.
RUNWAY 5W  RUNWAY 23W
Latitude: 36-57.052333N36-57.259833N
Longitude: 121-28.024833W121-27.465667W
Traffic pattern: leftright
Markings: buoysbuoys
Obstructions: 40 ft. pline, 1100 ft. from runway, 27:1 slope to clearnone

Airport Ownership and Management from official FAA records

Ownership: Privately-owned
Owner: FRAZIER LAKE AIRPARK
PO BOX 513
SAN MARTIN, CA 95046
Phone 408-242-3156
Manager: MONTY GROVES
2142 CRUDEN BAY ROAD
GILROY, CA 95020
Phone (408) 242-2492
PRESIDENT NOT LOCATED ON ARPT.

Airport Operational Statistics

Aircraft based on the field: 91
Single engine airplanes: 87
Multi engine airplanes: 1
Ultralights: 3
    
Aircraft operations: avg 26/day *
67% transient general aviation
33% local general aviation
* for 12-month period ending 08 June 2017

Additional Remarks

OCNL IRRIGATION ON TURF RWY AT NGT FROM MIDN TO 0600.
RWY CLSD BY NOTAM FOR MOWING, TYPICALLY MON. CTN: EQUIP ON RWY DURG MOWING OPS.
CTN: UTILITY WIRES ACROSS WEST END OF AFLD FOR APPROACH TO RWY 5 & WATERWAY 5W.
NO TOUCH AND GO OPS.
BIRDS FQTLY ON OF INVOF OF ARPT.
FOR CD CTC NORCAL APCH AT 916-361-3748.
RWY 05/23 IREG SFC
WILDLIFE HAZ NR MOVMT AREA.
RAMP & DOCK FACS AVBL.
BE ALERT TO SEAPLANE LNDG AREA (WTR CHNL) 200 FT SOUTH OF ADJ/PARL GRASS RWY.
NO PRACTICE TKOFS & LNDGS RY 05/23 WHEN WET OR SOFT.
NO MIDFIELD TKOFS OR BACK-TAXI ON RWY 5/23.
BERM AND DITCH ADJ TO RWY 05 APCH END.
PAEW VCNTY OF RWY 05/23 OCNLLY DURG DALGHT HRS.
RY 05W/23W NOT MKD; TYPICAL WATER DEPTH 2.5 FT.

Instrument Procedures

There are no published instrument procedures at 1C9.

Some nearby airports with instrument procedures:

KCVH - Hollister Municipal Airport (4 nm SE)
E16 - San Martin Airport (10 nm NW)
KWVI - Watsonville Municipal Airport (16 nm W)
KSNS - Salinas Municipal Airport (19 nm S)
KOAR - Marina Municipal Airport (22 nm SW)
 
Loc | Ops | Rwys | IFR | FBO | Links
Com | Nav | Svcs | Stats | Notes

AirNav Hotels Sweepstakes
 
Area around 1C9 (Frazier Lake Airpark)
 
Road maps at: MapQuest Bing Google
 
Aerial photo
WARNING: Photo may not be current or correct
Aerial photo of 1C9 (Frazier Lake Airpark)
Photo courtesy of FocalFlight.com
Photo taken 10-Apr-2015
looking southeast.

Do you have a better or more recent aerial photo of Frazier Lake Airpark that you would like to share? If so, please send us your photo.

 
Sectional chart

 
Airport distance calculator
Flying to Frazier Lake Airpark? Find the distance to fly.

From to 1C9

Sunrise and sunset
Times for 21-Feb-2018
 Local
(UTC-8)
 Zulu
(UTC)
Morning civil twilight06:2214:22
Sunrise06:4814:48
Sunset17:5101:51
Evening civil twilight18:1702:17

Current date and time
Zulu (UTC)  21-Feb-2018 19:38:05
Local (UTC-8)  21-Feb-2018 11:38:05
 
METAR
KCVH 
4nm SE 
211915Z AUTO VRB03KT 10SM CLR 11/M02 A3021 RMK A01
KE16 
10nm NW 
211915Z AUTO 00000KT 10SM CLR 09/M02 A3022 RMK AO2
KWVI 
15nm W 
211853Z AUTO 07003KT 10SM CLR 11/01 A3021 RMK AO2 SLP229 T01060006
KSNS 
18nm S 
211853Z 01003KT 10SM CLR 12/M01 A3020 RMK AO2 SLP236 T01171006
TAF
KSNS 
18nm S 
211737Z 2118/2218 12009KT P6SM FEW060 FM212200 28008KT P6SM SKC FM220300 VRB03KT P6SM FEW050 FM221400 15006KT P6SM SCT030 SCT050 FM221700 26007KT P6SM SCT025 SCT050
NOTAMs
Click for the latest NOTAMs
NOTAMs are issued by the DoD/FAA and will open in a separate window not controlled by AirNav.

 

 
 

Would you like to see your business listed on this page?

 If your business provides an interesting product or service to pilots, flight crews, aircraft, or users of the Frazier Lake Airpark, you should consider listing it here.  To start the listing process, click on the button below
 
Add a business
 

Other Pages about Frazier Lake Airpark

www.frazierlake.com
www.wheretofly.com/...
 
Update a link
 
Copyright © AirNav, LLC. All rights reserved. Privacy Policy  Contact